createdAt,value
2023-05-19T00:02:09.428Z,11.06
2023-05-19T00:04:42.969Z,11.03
2023-05-19T00:07:16.491Z,11.05
2023-05-19T00:09:49.567Z,11.04
2023-05-19T00:12:21.935Z,11.05
2023-05-19T00:14:54.732Z,11.05
2023-05-19T00:17:27.610Z,11.04
2023-05-19T00:19:59.470Z,11.03
2023-05-19T00:22:31.736Z,11.03
2023-05-19T00:25:04.208Z,11.02
2023-05-19T00:27:36.213Z,11.00
2023-05-19T00:30:10.370Z,10.98
2023-05-19T00:32:42.669Z,10.96
2023-05-19T00:35:14.729Z,10.95
2023-05-19T00:37:46.821Z,10.94
2023-05-19T00:40:19.072Z,10.93
2023-05-19T00:42:51.263Z,10.88
2023-05-19T00:45:23.210Z,10.84
2023-05-19T00:47:56.170Z,10.79
2023-05-19T00:50:28.664Z,10.76
2023-05-19T00:53:00.759Z,10.73
2023-05-19T00:55:34.415Z,10.72
2023-05-19T00:58:07.618Z,10.73
2023-05-19T01:00:39.918Z,10.72
2023-05-19T01:03:12.714Z,10.70
2023-05-19T01:05:45.346Z,10.71
2023-05-19T01:08:18.364Z,10.71
2023-05-19T01:10:50.397Z,10.70
2023-05-19T01:13:22.718Z,10.68
2023-05-19T01:16:02.011Z,10.65
2023-05-19T01:18:44.249Z,10.64
2023-05-19T01:21:36.636Z,10.63
2023-05-19T01:24:23.082Z,10.63
2023-05-19T01:27:17.487Z,10.63
2023-05-19T01:30:26.723Z,10.63
2023-05-19T01:33:01.878Z,10.63
2023-05-19T01:35:35.838Z,10.62
2023-05-19T01:38:08.887Z,10.59
2023-05-19T01:40:42.766Z,10.56
2023-05-19T01:43:21.275Z,10.58
2023-05-19T01:45:53.996Z,10.60
2023-05-19T01:48:26.416Z,10.60
2023-05-19T01:50:58.789Z,10.59
2023-05-19T01:53:30.629Z,10.59
2023-05-19T01:56:02.757Z,10.57
2023-05-19T01:58:41.546Z,10.57
2023-05-19T02:01:21.536Z,10.56
2023-05-19T02:04:08.521Z,10.57
2023-05-19T02:06:46.137Z,10.57
2023-05-19T02:09:26.986Z,10.57
2023-05-19T02:12:02.907Z,10.56
2023-05-19T02:14:40.723Z,10.56
2023-05-19T02:17:17.105Z,10.54
2023-05-19T02:19:49.298Z,10.53
2023-05-19T02:22:21.438Z,10.53
2023-05-19T02:24:53.621Z,10.54
2023-05-19T02:27:26.417Z,10.56
2023-05-19T02:29:59.063Z,10.56
2023-05-19T02:32:31.239Z,10.57
2023-05-19T02:35:04.079Z,10.58
2023-05-19T02:37:37.378Z,10.58
2023-05-19T02:40:12.886Z,10.59
2023-05-19T02:42:44.822Z,10.60
2023-05-19T02:45:17.211Z,10.60
2023-05-19T02:47:49.315Z,10.56
2023-05-19T02:50:22.688Z,10.53
2023-05-19T02:52:54.724Z,10.50
2023-05-19T02:55:26.888Z,10.48
2023-05-19T02:57:58.816Z,10.48
2023-05-19T03:00:30.896Z,10.44
2023-05-19T03:03:04.704Z,10.40
2023-05-19T03:05:36.997Z,10.38
2023-05-19T03:08:09.465Z,10.37
2023-05-19T03:10:41.410Z,10.38
2023-05-19T03:13:13.526Z,10.35
2023-05-19T03:15:45.324Z,10.33
2023-05-19T03:18:17.594Z,10.30
2023-05-19T03:20:49.931Z,10.27
2023-05-19T03:23:22.375Z,10.26
2023-05-19T03:25:56.187Z,10.25
2023-05-19T03:28:28.092Z,10.25
2023-05-19T03:31:00.013Z,10.25
2023-05-19T03:33:32.445Z,10.26
2023-05-19T03:36:05.295Z,10.27
2023-05-19T03:38:37.532Z,10.29
2023-05-19T03:41:09.502Z,10.30
2023-05-19T03:43:41.888Z,10.28
2023-05-19T03:46:13.986Z,10.27
2023-05-19T03:48:46.512Z,10.28
2023-05-19T03:51:18.382Z,10.29
2023-05-19T03:53:52.107Z,10.29
2023-05-19T03:56:26.633Z,10.29
2023-05-19T03:58:59.585Z,10.30
2023-05-19T04:01:31.821Z,10.31
2023-05-19T04:04:03.799Z,10.32
2023-05-19T04:06:36.475Z,10.32
2023-05-19T04:09:14.670Z,10.34
2023-05-19T04:11:46.959Z,10.35
2023-05-19T04:14:20.215Z,10.33
2023-05-19T04:16:53.956Z,10.32
2023-05-19T04:19:26.625Z,10.33
2023-05-19T04:21:58.848Z,10.34
2023-05-19T04:24:33.868Z,10.35
2023-05-19T04:27:12.186Z,10.38
2023-05-19T04:29:46.205Z,10.40
2023-05-19T04:32:18.674Z,10.43
2023-05-19T04:34:51.368Z,10.45
2023-05-19T04:37:24.310Z,10.47
2023-05-19T04:39:56.567Z,10.49
2023-05-19T04:42:30.880Z,10.49
2023-05-19T04:45:03.895Z,10.50
2023-05-19T04:47:36.956Z,10.51
2023-05-19T04:50:11.553Z,10.51
2023-05-19T04:52:45.776Z,10.49
2023-05-19T04:55:18.237Z,10.51
2023-05-19T04:57:50.930Z,10.52
2023-05-19T05:00:25.412Z,10.51
2023-05-19T05:02:58.093Z,10.49
2023-05-19T05:05:30.387Z,10.49
2023-05-19T05:08:03.350Z,10.47
2023-05-19T05:10:35.591Z,10.47
2023-05-19T05:13:09.983Z,10.47
2023-05-19T05:15:44.023Z,10.49
2023-05-19T05:18:17.937Z,10.51
2023-05-19T05:20:51.358Z,10.51
2023-05-19T05:23:24.520Z,10.52
2023-05-19T05:25:57.445Z,10.52
2023-05-19T05:28:31.505Z,10.51
2023-05-19T05:31:03.493Z,10.49
2023-05-19T05:33:36.074Z,10.48
2023-05-19T05:36:09.352Z,10.48
2023-05-19T05:38:41.578Z,10.49
2023-05-19T05:41:13.677Z,10.49
2023-05-19T05:43:45.600Z,10.50
2023-05-19T05:46:17.711Z,10.52
2023-05-19T05:48:50.551Z,10.54
2023-05-19T05:51:24.569Z,10.57
2023-05-19T05:53:55.871Z,10.60
2023-05-19T05:56:29.485Z,10.62
2023-05-19T05:59:03.476Z,10.65
2023-05-19T06:01:36.013Z,10.69
2023-05-19T06:04:08.136Z,10.72
2023-05-19T06:06:40.062Z,10.74
2023-05-19T06:09:12.602Z,10.78
2023-05-19T06:11:45.572Z,10.83
2023-05-19T06:14:19.300Z,10.87
2023-05-19T06:16:52.399Z,10.87
2023-05-19T06:19:27.744Z,10.84
2023-05-19T06:22:02.812Z,10.83
2023-05-19T06:24:35.217Z,10.83
2023-05-19T06:27:08.672Z,10.86
2023-05-19T06:29:40.598Z,10.88
2023-05-19T06:32:12.550Z,10.93
2023-05-19T06:34:44.638Z,10.97
2023-05-19T06:37:21.064Z,11.03
2023-05-19T06:39:53.514Z,11.05
2023-05-19T06:42:26.110Z,11.08
2023-05-19T06:44:58.749Z,11.09
2023-05-19T06:47:31.104Z,11.09
2023-05-19T06:50:03.048Z,11.13
2023-05-19T06:52:35.246Z,11.15
2023-05-19T06:55:09.109Z,11.19
2023-05-19T06:57:44.252Z,11.18
2023-05-19T07:00:20.585Z,11.14
2023-05-19T07:02:55.439Z,11.13
2023-05-19T07:05:29.491Z,11.14
2023-05-19T07:08:01.772Z,11.14
2023-05-19T07:10:34.603Z,11.14
2023-05-19T07:13:06.909Z,11.15
2023-05-19T07:15:39.371Z,11.17
2023-05-19T07:18:11.508Z,11.19
2023-05-19T07:20:45.571Z,11.21
2023-05-19T07:23:17.743Z,11.24
2023-05-19T07:25:49.900Z,11.26
2023-05-19T07:28:24.029Z,11.29
2023-05-19T07:30:56.924Z,11.30
2023-05-19T07:33:30.164Z,11.29
2023-05-19T07:36:02.599Z,11.32
2023-05-19T07:38:35.324Z,11.37
2023-05-19T07:41:07.871Z,11.44
2023-05-19T07:43:40.005Z,11.49
2023-05-19T07:46:12.105Z,11.53
2023-05-19T07:48:44.259Z,11.58
2023-05-19T07:51:16.742Z,11.63
2023-05-19T07:53:49.225Z,11.63
2023-05-19T07:56:22.885Z,11.63
2023-05-19T07:58:55.272Z,11.66
2023-05-19T08:01:30.706Z,11.68
2023-05-19T08:04:03.527Z,11.72
2023-05-19T08:06:35.622Z,11.74
2023-05-19T08:09:07.718Z,11.75
2023-05-19T08:11:39.648Z,11.73
2023-05-19T08:14:11.901Z,11.74
2023-05-19T08:16:45.916Z,11.76
2023-05-19T08:19:17.874Z,11.78
2023-05-19T08:21:50.784Z,11.82
2023-05-19T08:24:24.282Z,11.87
2023-05-19T08:26:57.018Z,11.91
2023-05-19T08:29:30.194Z,11.95
2023-05-19T08:32:03.809Z,11.91
2023-05-19T08:34:36.244Z,11.83
2023-05-19T08:37:08.914Z,11.80
2023-05-19T08:39:40.868Z,11.79
2023-05-19T08:42:12.784Z,11.80
2023-05-19T08:44:44.978Z,11.82
2023-05-19T08:47:18.985Z,11.81
2023-05-19T08:49:56.709Z,11.79
2023-05-19T08:52:37.135Z,11.80
2023-05-19T08:55:14.499Z,11.81
2023-05-19T08:57:46.596Z,11.83
2023-05-19T09:00:20.184Z,11.86
2023-05-19T09:03:00.856Z,11.86
2023-05-19T09:05:33.910Z,11.86
2023-05-19T09:08:07.364Z,11.89
2023-05-19T09:10:39.276Z,11.94
2023-05-19T09:13:11.558Z,11.99
2023-05-19T09:15:44.941Z,12.03
2023-05-19T09:18:17.156Z,12.07
2023-05-19T09:20:49.429Z,12.09
2023-05-19T09:23:25.101Z,12.12
2023-05-19T09:25:59.082Z,12.15
2023-05-19T09:28:33.396Z,12.19
2023-05-19T09:31:07.863Z,12.24
2023-05-19T09:33:45.526Z,12.30
2023-05-19T09:36:18.110Z,12.35
2023-05-19T09:38:49.977Z,12.37
2023-05-19T09:41:23.422Z,12.38
2023-05-19T09:43:58.618Z,12.40
2023-05-19T09:46:32.303Z,12.46
2023-05-19T09:49:11.865Z,12.53
2023-05-19T09:51:45.932Z,12.56
2023-05-19T09:54:19.089Z,12.58
2023-05-19T09:56:57.671Z,12.61
2023-05-19T09:59:33.011Z,12.65
2023-05-19T10:02:06.496Z,12.69
2023-05-19T10:04:39.309Z,12.74
2023-05-19T10:07:14.483Z,12.76
2023-05-19T10:09:50.111Z,12.75
2023-05-19T10:12:22.949Z,12.74
2023-05-19T10:14:56.479Z,12.75
2023-05-19T10:17:29.440Z,12.76
2023-05-19T10:20:04.138Z,12.77
2023-05-19T10:22:36.649Z,12.79
2023-05-19T10:25:10.768Z,12.81
2023-05-19T10:27:49.079Z,12.86
2023-05-19T10:30:27.502Z,12.92
2023-05-19T10:33:00.454Z,12.97
2023-05-19T10:35:44.570Z,13.00
2023-05-19T10:38:22.234Z,13.02
2023-05-19T10:41:02.704Z,13.08
2023-05-19T10:43:43.562Z,13.13
2023-05-19T10:46:16.047Z,13.20
2023-05-19T10:48:49.041Z,13.28
2023-05-19T10:51:21.777Z,13.35
2023-05-19T10:53:54.316Z,13.41
2023-05-19T10:56:36.337Z,13.45
2023-05-19T10:59:09.640Z,13.51
2023-05-19T11:01:44.136Z,13.55
2023-05-19T11:04:16.427Z,13.62
2023-05-19T11:06:53.716Z,13.67
2023-05-19T11:09:39.665Z,13.72
2023-05-19T11:12:12.725Z,13.78
2023-05-19T11:14:46.770Z,13.85
2023-05-19T11:17:22.129Z,13.90
2023-05-19T11:20:02.521Z,13.95
2023-05-19T11:22:37.271Z,13.99
2023-05-19T11:25:11.233Z,14.00
2023-05-19T11:27:47.095Z,13.99
2023-05-19T11:30:20.993Z,13.95
2023-05-19T11:32:53.414Z,13.95
2023-05-19T11:35:26.187Z,13.96
2023-05-19T11:38:00.894Z,13.96
2023-05-19T11:40:33.531Z,13.99
2023-05-19T11:43:05.437Z,14.03
2023-05-19T11:45:38.107Z,14.08
2023-05-19T11:48:16.102Z,14.12
2023-05-19T11:50:49.053Z,14.17
2023-05-19T11:53:24.566Z,14.17
2023-05-19T11:55:58.629Z,14.18
2023-05-19T11:58:31.795Z,14.16
2023-05-19T12:01:10.863Z,14.14
2023-05-19T12:03:44.766Z,14.11
2023-05-19T12:06:17.601Z,14.11
2023-05-19T12:08:49.786Z,14.15
2023-05-19T12:11:22.173Z,14.17
2023-05-19T12:13:58.108Z,14.18
2023-05-19T12:16:36.833Z,14.19
2023-05-19T12:19:14.712Z,14.19
2023-05-19T12:21:48.796Z,14.20
2023-05-19T12:24:22.123Z,14.27
2023-05-19T12:26:54.362Z,14.34
2023-05-19T12:29:30.716Z,14.42
2023-05-19T12:32:04.642Z,14.51
2023-05-19T12:34:39.561Z,14.54
2023-05-19T12:37:15.905Z,14.56
2023-05-19T12:39:49.363Z,14.52
2023-05-19T12:42:26.658Z,14.54
2023-05-19T12:45:00.753Z,14.56
2023-05-19T12:47:36.576Z,14.58
2023-05-19T12:50:13.186Z,14.58
2023-05-19T12:52:48.596Z,14.59
2023-05-19T12:55:22.374Z,14.59
2023-05-19T12:57:58.285Z,14.63
2023-05-19T13:00:32.868Z,14.68
2023-05-19T13:03:07.918Z,14.70
2023-05-19T13:05:43.774Z,14.70
2023-05-19T13:08:17.304Z,14.73
2023-05-19T13:10:50.947Z,14.75
2023-05-19T13:13:23.329Z,14.73
2023-05-19T13:15:57.367Z,14.77
2023-05-19T13:18:32.667Z,14.78
2023-05-19T13:21:05.810Z,14.77
2023-05-19T13:23:38.109Z,14.74
2023-05-19T13:26:12.826Z,14.73
2023-05-19T13:28:44.845Z,14.75
2023-05-19T13:31:16.894Z,14.75
2023-05-19T13:33:49.033Z,14.72
2023-05-19T13:36:21.066Z,14.72
2023-05-19T13:38:53.202Z,14.71
2023-05-19T13:41:29.501Z,14.70
2023-05-19T13:44:04.070Z,14.69
2023-05-19T13:49:15.699Z,14.65
2023-05-19T13:51:48.931Z,14.64
2023-05-19T13:54:24.281Z,14.64
2023-05-19T13:56:56.576Z,14.66
2023-05-19T13:59:29.864Z,14.66
2023-05-19T14:02:03.965Z,14.67
2023-05-19T14:04:39.526Z,14.64
2023-05-19T14:07:11.868Z,14.62
2023-05-19T14:09:46.321Z,14.61
2023-05-19T14:12:18.665Z,14.62
2023-05-19T14:14:52.218Z,14.64
2023-05-19T14:17:24.340Z,14.65
2023-05-19T14:19:56.804Z,14.63
2023-05-19T14:22:33.496Z,14.60
2023-05-19T14:25:06.801Z,14.59
2023-05-19T14:27:42.190Z,14.59
2023-05-19T14:30:16.174Z,14.62
2023-05-19T14:32:48.952Z,14.64
2023-05-19T14:35:22.162Z,14.67
2023-05-19T14:37:57.433Z,14.68
2023-05-19T14:40:31.363Z,14.67
2023-05-19T14:43:05.157Z,14.65
2023-05-19T14:45:37.193Z,14.66
2023-05-19T14:48:12.047Z,14.65
2023-05-19T14:50:44.537Z,14.63
2023-05-19T14:53:18.602Z,14.61
2023-05-19T14:55:51.870Z,14.60
2023-05-19T14:58:28.183Z,14.60
2023-05-19T15:01:02.609Z,14.61
2023-05-19T15:03:35.439Z,14.57
2023-05-19T15:06:14.512Z,14.53
2023-05-19T15:08:46.798Z,14.54
2023-05-19T15:11:20.993Z,14.55
2023-05-19T15:13:51.394Z,14.55
2023-05-19T15:16:24.374Z,14.55
2023-05-19T15:18:57.047Z,14.55
2023-05-19T15:21:29.339Z,14.53
2023-05-19T15:24:01.577Z,14.52
2023-05-19T15:26:33.946Z,14.51
2023-05-19T15:29:06.116Z,14.48
2023-05-19T15:31:39.719Z,14.47
2023-05-19T15:34:12.820Z,14.47
2023-05-19T15:36:46.128Z,14.48
2023-05-19T15:39:19.245Z,14.47
2023-05-19T15:41:53.965Z,14.45
2023-05-19T15:44:28.833Z,14.42
2023-05-19T15:47:04.475Z,14.43
2023-05-19T15:49:36.860Z,14.42
2023-05-19T15:52:09.426Z,14.41
2023-05-19T15:54:41.735Z,14.40
2023-05-19T15:57:14.334Z,14.40
2023-05-19T15:59:46.805Z,14.40
2023-05-19T16:02:19.590Z,14.39
2023-05-19T16:04:52.370Z,14.37
2023-05-19T16:07:24.692Z,14.36
2023-05-19T16:09:56.990Z,14.37
2023-05-19T16:12:30.562Z,14.38
2023-05-19T16:15:03.295Z,14.37
2023-05-19T16:17:36.281Z,14.35
2023-05-19T16:20:13.210Z,14.33
2023-05-19T16:22:45.810Z,14.32
2023-05-19T16:25:19.694Z,14.32
2023-05-19T16:27:53.466Z,14.32
2023-05-19T16:30:31.296Z,14.33
2023-05-19T16:33:04.025Z,14.34
2023-05-19T16:35:36.393Z,14.34
2023-05-19T16:38:08.755Z,14.33
2023-05-19T16:40:41.668Z,14.32
2023-05-19T16:43:13.954Z,14.32
2023-05-19T16:45:46.464Z,14.33
2023-05-19T16:48:18.471Z,14.33
2023-05-19T16:50:52.228Z,14.32
2023-05-19T16:53:25.912Z,14.32
2023-05-19T16:55:59.286Z,14.32
2023-05-19T16:58:31.531Z,14.33
2023-05-19T17:01:04.259Z,14.34
2023-05-19T17:03:36.800Z,14.35
2023-05-19T17:06:09.234Z,14.35
2023-05-19T17:08:41.362Z,14.36
2023-05-19T17:11:59.145Z,14.39
2023-05-19T17:14:32.179Z,14.38
2023-05-19T17:17:05.136Z,14.39
2023-05-19T17:19:37.390Z,14.41
2023-05-19T17:22:15.149Z,14.42
2023-05-19T17:24:47.392Z,14.40
2023-05-19T17:27:19.353Z,14.38
2023-05-19T17:29:55.085Z,14.38
2023-05-19T17:32:30.256Z,14.38
2023-05-19T17:35:03.208Z,14.36
2023-05-19T17:37:36.541Z,14.35
2023-05-19T17:40:11.695Z,14.33
2023-05-19T17:42:44.289Z,14.32
2023-05-19T17:45:16.890Z,14.32
2023-05-19T17:47:49.841Z,14.32
2023-05-19T17:50:22.656Z,14.32
2023-05-19T17:52:57.930Z,14.32
2023-05-19T17:55:32.217Z,14.32
2023-05-19T17:58:05.807Z,14.32
2023-05-19T18:00:38.881Z,14.31
2023-05-19T18:03:12.883Z,14.31
2023-05-19T18:05:46.097Z,14.31
2023-05-19T18:08:20.753Z,14.28
2023-05-19T18:10:54.434Z,14.28
2023-05-19T18:13:26.429Z,14.28
2023-05-19T18:16:00.029Z,14.26
2023-05-19T18:18:34.682Z,14.27
2023-05-19T18:21:06.892Z,14.27
2023-05-19T18:23:39.388Z,14.27
2023-05-19T18:26:14.478Z,14.26
2023-05-19T18:28:46.526Z,14.25
2023-05-19T18:31:20.216Z,14.24
2023-05-19T18:33:53.300Z,14.23
2023-05-19T18:36:25.929Z,14.22
2023-05-19T18:39:01.961Z,14.21
2023-05-19T18:41:34.011Z,14.21
2023-05-19T18:44:08.150Z,14.20
2023-05-19T18:46:40.205Z,14.17
2023-05-19T18:49:15.967Z,14.14
2023-05-19T18:51:48.690Z,14.13
2023-05-19T18:54:21.803Z,14.12
2023-05-19T18:56:55.256Z,14.12
2023-05-19T18:59:30.875Z,14.12
2023-05-19T19:02:03.605Z,14.12
2023-05-19T19:04:36.527Z,14.13
2023-05-19T19:07:09.669Z,14.13
2023-05-19T19:09:43.876Z,14.12
2023-05-19T19:12:20.360Z,14.13
2023-05-19T19:14:54.710Z,14.14
2023-05-19T19:17:29.986Z,14.14
2023-05-19T19:20:04.191Z,14.14
2023-05-19T19:22:37.831Z,14.13
2023-05-19T19:25:10.895Z,14.14
2023-05-19T19:27:43.166Z,14.13
2023-05-19T19:30:15.780Z,14.13
2023-05-19T19:32:48.161Z,14.13
2023-05-19T19:35:20.284Z,14.13
2023-05-19T19:37:53.475Z,14.12
2023-05-19T19:40:26.100Z,14.12
2023-05-19T19:42:58.360Z,14.12
2023-05-19T19:45:30.690Z,14.11
2023-05-19T19:48:03.260Z,14.11
2023-05-19T19:50:36.530Z,14.12
2023-05-19T19:53:11.938Z,14.12
2023-05-19T19:55:44.425Z,14.12
2023-05-19T19:58:18.010Z,14.11
2023-05-19T20:00:58.859Z,14.10
2023-05-19T20:03:33.565Z,14.08
2023-05-19T20:06:05.887Z,14.08
2023-05-19T20:08:38.094Z,14.08
2023-05-19T20:11:13.869Z,14.07
2023-05-19T20:13:46.541Z,14.05
2023-05-19T20:16:20.779Z,14.04
2023-05-19T20:18:53.884Z,14.04
2023-05-19T20:21:27.136Z,14.03
2023-05-19T20:23:59.427Z,14.03
2023-05-19T20:26:31.584Z,14.02
2023-05-19T20:29:05.744Z,14.01
2023-05-19T20:31:40.151Z,13.99
2023-05-19T20:34:12.717Z,13.99
2023-05-19T20:36:46.233Z,13.97
2023-05-19T20:39:19.074Z,13.96
2023-05-19T20:41:51.353Z,13.96
2023-05-19T20:44:24.754Z,13.96
2023-05-19T20:46:57.946Z,13.96
2023-05-19T20:49:30.691Z,13.96
2023-05-19T20:52:03.125Z,13.96
2023-05-19T20:54:35.336Z,13.96
2023-05-19T20:57:09.479Z,13.95
2023-05-19T20:59:42.286Z,13.95
2023-05-19T21:02:14.316Z,13.95
2023-05-19T21:04:47.208Z,13.96
2023-05-19T21:07:19.792Z,13.96
2023-05-19T21:09:53.841Z,13.96
2023-05-19T21:12:28.746Z,13.96
2023-05-19T21:15:03.768Z,13.93
2023-05-19T21:17:37.575Z,13.91
2023-05-19T21:20:12.304Z,13.92
2023-05-19T21:22:44.664Z,13.90
2023-05-19T21:25:17.399Z,13.87
2023-05-19T21:27:52.055Z,13.86
2023-05-19T21:30:26.671Z,13.86
2023-05-19T21:33:03.509Z,13.85
2023-05-19T21:35:36.426Z,13.85
2023-05-19T21:38:22.563Z,13.84
2023-05-19T21:40:56.480Z,13.83
2023-05-19T21:43:29.345Z,13.83
2023-05-19T21:46:02.589Z,13.82
2023-05-19T21:48:34.531Z,13.79
2023-05-19T21:51:07.140Z,13.79
2023-05-19T21:53:39.905Z,13.78
2023-05-19T21:56:12.036Z,13.77
2023-05-19T21:58:45.258Z,13.75
2023-05-19T22:01:20.306Z,13.73
2023-05-19T22:03:55.434Z,13.73
2023-05-19T22:06:31.619Z,13.72
2023-05-19T22:09:04.442Z,13.71
2023-05-19T22:11:37.144Z,13.71
2023-05-19T22:14:11.409Z,13.71
2023-05-19T22:16:44.197Z,13.72
2023-05-19T22:19:16.432Z,13.72
2023-05-19T22:21:51.834Z,13.71
2023-05-19T22:24:28.659Z,13.70
2023-05-19T22:27:01.291Z,13.70
2023-05-19T22:29:33.689Z,13.70
2023-05-19T22:32:06.092Z,13.69
2023-05-19T22:34:38.210Z,13.69
2023-05-19T22:37:10.782Z,13.68
2023-05-19T22:39:43.483Z,13.68
2023-05-19T22:42:16.362Z,13.68
2023-05-19T22:44:54.025Z,13.67
2023-05-19T22:47:26.609Z,13.65
2023-05-19T22:49:58.562Z,13.64
2023-05-19T22:52:31.072Z,13.63
2023-05-19T22:55:05.790Z,13.62
2023-05-19T22:57:38.461Z,13.62
2023-05-19T23:00:18.840Z,13.63
2023-05-19T23:02:52.467Z,13.63
2023-05-19T23:05:24.448Z,13.62
2023-05-19T23:07:56.833Z,13.62
2023-05-19T23:10:28.982Z,13.62
2023-05-19T23:13:01.737Z,13.61
2023-05-19T23:15:34.760Z,13.61
2023-05-19T23:18:09.776Z,13.62
2023-05-19T23:20:44.485Z,13.62
2023-05-19T23:23:18.832Z,13.61
2023-05-19T23:25:51.005Z,13.61
2023-05-19T23:28:24.503Z,13.59
2023-05-19T23:30:58.267Z,13.57
2023-05-19T23:33:31.781Z,13.54
2023-05-19T23:36:09.208Z,13.50
2023-05-19T23:38:43.413Z,13.47
2023-05-19T23:41:16.678Z,13.43
2023-05-19T23:43:49.140Z,13.41
2023-05-19T23:46:21.081Z,13.39
2023-05-19T23:48:55.126Z,13.40
2023-05-19T23:51:29.308Z,13.40
2023-05-19T23:54:01.825Z,13.38
